Plum Island, Massachusetts
Current Conditions -  °F | °C
As of 6:54 PM on Friday 28 Nov 2014 (Local Time) from KLWM Reporting Station
Clear Clear  
Wind Chill: 19°   Ceiling: Unl
Heat Index: 27°   Visibility: 10mi
Dew Point: 16°   Wind: 7mph
Humidity: 63%   Direction: 280°W
Pressure: 30.17"   Gusts: NA
Location:  42.7802°N, 70.8638°W
Report Text: KLWM 282354Z 28006KT 10SM CLR M03/M09 A3017 RMK AO2 SLP217 T10281089 10000 21033 51024
Loading
Personal Weather Stations






























Interactive Weather Map New forecast layout! Learn more

10-Day Weather Forecast

Advertisements
Track Severe Weather on mobile